Time;durP1;ratioP1;P1;durP2;ratioP2;P2;SDS_P1;SDS_P2;PMS_P1;PMS_P2;Temp;Humidity;BMP_temperature;BMP_pressure;BME280_temperature;BME280_humidity;BME280_pressure;Samples;Min_cycle;Max_cycle;Signal;HPM_P1;HPM_P2
2023/05/21 00:01:47;;;;;;;22.53;15.43;;;;;;;-143.21;92.41;72094.00;5082194;28;20188;-77
2023/05/21 00:04:14;;;;;;;25.07;15.87;;;;;;;-143.21;92.34;72097.97;5089419;28;20204;-78
2023/05/21 00:06:42;;;;;;;27.73;16.23;;;;;;;-143.21;92.14;72088.03;5081816;28;20200;-78
2023/05/21 00:09:11;;;;;;;26.77;15.83;;;;;;;-143.21;92.36;72088.03;5078708;28;20205;-78
2023/05/21 00:11:38;;;;;;;22.57;15.67;;;;;;;-143.21;92.14;72097.97;5086503;28;20236;-79
2023/05/21 00:14:05;;;;;;;32.97;16.40;;;;;;;-143.21;92.06;72097.97;5079356;28;20205;-79
2023/05/21 00:16:32;;;;;;;30.47;15.97;;;;;;;-143.21;91.56;72097.97;5089967;28;20197;-78
2023/05/21 00:18:58;;;;;;;23.07;15.47;;;;;;;-143.21;90.84;72097.97;5080921;28;20228;-78
2023/05/21 00:21:25;;;;;;;26.13;16.53;;;;;;;-143.21;90.21;72097.97;5082530;28;20194;-78
2023/05/21 00:23:55;;;;;;;24.73;15.70;;;;;;;-143.21;90.23;72094.00;5090808;28;20280;-79
2023/05/21 00:26:22;;;;;;;28.77;17.27;;;;;;;-143.21;89.88;72097.97;5087479;28;20202;-78
2023/05/21 00:28:49;;;;;;;26.70;16.20;;;;;;;-143.21;89.80;72094.00;5084953;28;20194;-79
2023/05/21 00:31:17;;;;;;;26.20;16.63;;;;;;;-143.21;90.25;72097.97;5081568;28;20271;-78
2023/05/21 00:33:44;;;;;;;27.00;16.10;;;;;;;-143.21;90.43;72103.91;5086387;28;20211;-79
2023/05/21 00:36:13;;;;;;;24.83;15.73;;;;;;;-143.21;90.20;72099.94;5092290;28;20219;-78
2023/05/21 00:38:42;;;;;;;24.93;15.83;;;;;;;-143.21;90.13;72101.94;5082016;28;20211;-78
2023/05/21 00:41:10;;;;;;;22.53;15.43;;;;;;;-143.21;90.64;72103.91;5087701;28;20258;-78
2023/05/21 00:43:39;;;;;;;27.03;16.07;;;;;;;-143.21;90.08;72115.81;5091260;28;20200;-78
2023/05/21 00:46:06;;;;;;;25.60;17.03;;;;;;;-143.21;90.74;72119.78;5089154;28;20204;-79
2023/05/21 00:48:33;;;;;;;27.00;16.80;;;;;;;-143.21;91.29;72133.66;5087478;28;20196;-78
2023/05/21 00:51:00;;;;;;;24.33;16.27;;;;;;;-143.21;91.49;72133.66;5082881;28;20254;-78
2023/05/21 00:53:29;;;;;;;27.70;16.87;;;;;;;-143.21;91.79;72139.59;5085119;28;20269;-78
2023/05/21 00:55:56;;;;;;;25.43;16.40;;;;;;;-143.21;91.71;72141.59;5085644;28;20205;-78
2023/05/21 00:58:24;;;;;;;23.80;15.43;;;;;;;-143.21;91.10;72181.25;5086190;28;20233;-78
2023/05/21 01:00:54;;;;;;;23.67;15.57;;;;;;;-143.21;90.95;72211.00;5101240;28;20188;-78
2023/05/21 01:03:22;;;;;;;25.73;15.93;;;;;;;-143.21;92.94;72240.75;5100944;28;20208;-78
2023/05/21 01:05:52;;;;;;;26.57;16.93;;;;;;;-143.21;95.09;72236.78;5076759;28;20196;-77
2023/05/21 01:08:19;;;;;;;24.07;16.43;;;;;;;-143.21;95.79;72230.81;5084683;28;20223;-79
2023/05/21 01:10:46;;;;;;;25.47;15.90;;;;;;;-143.21;95.56;72224.88;5085130;28;20209;-78
2023/05/21 01:13:15;;;;;;;24.53;15.63;;;;;;;-143.21;95.66;72216.94;5081561;28;20231;-78
2023/05/21 01:15:44;;;;;;;26.00;15.70;;;;;;;-143.21;95.44;72205.03;5082549;28;20207;-78
2023/05/21 01:18:13;;;;;;;22.97;14.73;;;;;;;-143.21;94.99;72211.00;5088314;28;20192;-78
2023/05/21 01:20:41;;;;;;;24.87;15.13;;;;;;;-143.21;94.59;72199.09;5082260;28;20202;-78
2023/05/21 01:23:09;;;;;;;25.53;15.30;;;;;;;-143.21;94.20;72193.16;5077888;28;20220;-77
2023/05/21 01:25:36;;;;;;;21.23;13.90;;;;;;;-143.21;94.17;72189.19;5079961;28;20296;-78
2023/05/21 01:28:03;;;;;;;24.93;14.30;;;;;;;-143.21;93.76;72191.16;5095208;28;20199;-78
2023/05/21 01:30:30;;;;;;;24.90;14.27;;;;;;;-143.21;92.31;72183.22;5087511;28;20211;-78
2023/05/21 01:33:02;;;;;;;20.47;13.83;;;;;;;-143.21;92.34;72185.22;5084321;28;20297;-78
2023/05/21 01:35:33;;;;;;;18.07;12.97;;;;;;;-143.21;92.36;72185.22;5086443;28;20190;-79
2023/05/21 01:38:09;;;;;;;21.20;13.03;;;;;;;-143.21;92.23;72181.25;5092539;28;20189;-78
2023/05/21 01:40:45;;;;;;;18.67;13.07;;;;;;;-143.21;91.58;72179.25;5079809;28;20193;-78
2023/05/21 01:43:13;;;;;;;22.47;13.67;;;;;;;-143.21;92.10;72189.19;5095779;28;20184;-78
2023/05/21 01:45:43;;;;;;;20.53;13.13;;;;;;;-143.21;92.27;72187.19;5084164;28;20203;-78
2023/05/21 01:48:12;;;;;;;20.17;13.17;;;;;;;-143.21;91.79;72181.25;5093098;28;20203;-78
2023/05/21 01:50:41;;;;;;;18.37;12.17;;;;;;;-143.21;90.81;72163.41;5083727;28;20731;-78
2023/05/21 01:53:08;;;;;;;18.07;11.80;;;;;;;-143.21;90.03;72171.34;5082092;28;21628;-78
2023/05/21 01:55:38;;;;;;;16.13;11.17;;;;;;;-143.21;89.52;72177.28;5080910;28;20197;-77
2023/05/21 01:58:06;;;;;;;17.47;11.87;;;;;;;-143.21;89.95;72179.25;5085921;28;20229;-78
2023/05/21 02:00:33;;;;;;;17.23;10.10;;;;;;;-143.21;89.03;72189.19;5086803;28;20258;-78
2023/05/21 02:03:00;;;;;;;15.63;9.97;;;;;;;-143.21;89.40;72193.16;5085007;28;20195;-78
2023/05/21 02:05:27;;;;;;;20.33;9.37;;;;;;;-143.21;89.65;72212.97;5090484;28;20192;-78
2023/05/21 02:07:54;;;;;;;19.30;9.37;;;;;;;-143.21;90.47;72220.91;5087102;28;20189;-78
2023/05/21 02:10:21;;;;;;;14.53;10.23;;;;;;;-143.21;90.46;72222.91;5086662;28;20199;-77
2023/05/21 02:12:48;;;;;;;15.77;9.63;;;;;;;-143.21;90.71;72232.81;5086286;28;20258;-77
2023/05/21 02:15:16;;;;;;;16.23;10.17;;;;;;;-143.21;91.45;72224.88;5082244;28;20194;-76
2023/05/21 02:17:43;;;;;;;15.47;10.17;;;;;;;-143.21;91.14;72216.94;5081193;28;20723;-78
2023/05/21 02:20:11;;;;;;;22.33;10.77;;;;;;;-143.21;91.13;72214.97;5078775;28;20669;-78
2023/05/21 02:22:38;;;;;;;29.43;11.17;;;;;;;-143.21;90.95;72220.91;5088164;28;20612;-78
2023/05/21 02:25:07;;;;;;;20.87;11.23;;;;;;;-143.21;91.14;72230.81;5081707;28;20231;-84
2023/05/21 02:27:37;;;;;;;19.57;10.47;;;;;;;-143.21;92.15;72242.72;5088524;28;20274;-84
2023/05/21 02:30:06;;;;;;;16.70;10.43;;;;;;;-143.21;92.50;72274.47;5090446;28;20642;-78
2023/05/21 02:32:35;;;;;;;17.40;11.27;;;;;;;-143.21;92.45;72300.25;5093827;28;20219;-78
2023/05/21 02:35:03;;;;;;;21.80;11.90;;;;;;;-143.21;95.07;72308.16;5079737;28;20189;-78
2023/05/21 02:37:32;;;;;;;20.03;12.43;;;;;;;-143.21;96.19;72300.25;5093842;28;20194;-78
2023/05/21 02:40:00;;;;;;;21.30;12.80;;;;;;;-143.21;96.43;72286.34;5092127;28;20193;-78
2023/05/21 02:42:27;;;;;;;18.97;11.73;;;;;;;-143.21;95.78;72268.50;5078113;28;20624;-78
2023/05/21 02:44:53;;;;;;;20.93;11.03;;;;;;;-143.21;95.04;72266.53;5073121;28;20205;-84
2023/05/21 02:47:22;;;;;;;20.63;11.40;;;;;;;-143.21;93.97;72260.56;5088619;28;20201;-83
2023/05/21 02:49:51;;;;;;;20.30;12.37;;;;;;;-143.21;93.10;72246.69;5088809;28;20647;-83
2023/05/21 02:52:18;;;;;;;21.93;11.40;;;;;;;-143.21;93.19;72248.66;5088017;28;20603;-83
2023/05/21 02:54:45;;;;;;;17.70;11.87;;;;;;;-143.21;92.44;72248.66;5086280;28;20206;-84
2023/05/21 02:57:13;;;;;;;14.60;10.77;;;;;;;-143.21;92.04;72248.66;5091502;28;20711;-85
2023/05/21 02:59:39;;;;;;;15.10;10.47;;;;;;;-143.21;91.97;72244.72;5089690;28;20199;-86
2023/05/21 03:02:06;;;;;;;18.13;11.00;;;;;;;-143.21;91.90;72240.75;5087209;28;20640;-85
2023/05/21 03:04:37;;;;;;;17.07;11.73;;;;;;;-143.21;91.79;72244.72;5087524;28;20188;-86
2023/05/21 03:07:08;;;;;;;20.73;11.40;;;;;;;-143.21;92.14;72240.75;5075631;28;20196;-86
2023/05/21 03:09:35;;;;;;;16.20;10.50;;;;;;;-143.21;91.94;72238.75;5083759;28;20208;-85
2023/05/21 03:12:02;;;;;;;19.67;12.37;;;;;;;-143.21;91.55;72238.75;5093458;28;20219;-86
2023/05/21 03:14:29;;;;;;;16.50;12.30;;;;;;;-143.21;91.49;72244.72;5096181;28;20623;-79
2023/05/21 03:16:57;;;;;;;18.40;12.60;;;;;;;-143.21;91.69;72240.75;5088787;28;20196;-78
2023/05/21 03:19:24;;;;;;;18.93;12.27;;;;;;;-143.21;91.89;72248.66;5081219;28;20196;-78
2023/05/21 03:21:51;;;;;;;19.17;12.43;;;;;;;-143.21;91.53;72242.72;5090896;28;20321;-78
2023/05/21 03:24:19;;;;;;;19.93;14.50;;;;;;;-143.21;91.28;72252.63;5099980;28;20196;-78
2023/05/21 03:26:47;;;;;;;27.93;20.03;;;;;;;-143.21;91.50;72256.59;5087194;28;20196;-78
2023/05/21 03:29:13;;;;;;;29.27;20.80;;;;;;;-143.21;91.29;72262.56;5091587;28;20200;-78
2023/05/21 03:31:40;;;;;;;33.70;21.90;;;;;;;-143.21;91.04;72254.63;5087796;28;20239;-78
2023/05/21 03:34:08;;;;;;;29.27;20.17;;;;;;;-143.21;91.03;72254.63;5090798;28;20276;-78
2023/05/21 03:36:35;;;;;;;32.00;19.60;;;;;;;-143.21;90.78;72254.63;5087683;28;20276;-78
2023/05/21 03:39:02;;;;;;;25.97;16.57;;;;;;;-143.21;90.82;72248.66;5093314;28;20197;-77
2023/05/21 03:41:31;;;;;;;27.10;14.83;;;;;;;-143.21;90.84;72256.59;5095094;28;20740;-77
2023/05/21 03:43:57;;;;;;;36.30;14.63;;;;;;;-143.21;90.77;72260.56;5079669;28;20204;-77
2023/05/21 03:46:25;;;;;;;26.87;15.60;;;;;;;-143.21;91.16;72250.66;5084895;28;20194;-77
2023/05/21 03:48:51;;;;;;;26.83;15.97;;;;;;;-143.21;91.42;72250.66;5088268;28;20230;-77
2023/05/21 03:51:19;;;;;;;26.40;17.17;;;;;;;-143.21;90.89;72252.63;5090746;28;20271;-77
2023/05/21 03:53:46;;;;;;;31.23;17.53;;;;;;;-143.21;91.05;72250.66;5085047;28;20238;-77
2023/05/21 03:56:13;;;;;;;25.37;16.33;;;;;;;-143.21;91.63;72244.72;5084001;28;20629;-77
2023/05/21 03:58:41;;;;;;;24.90;14.53;;;;;;;-143.21;91.84;72252.63;5089020;28;20671;-77
2023/05/21 04:01:09;;;;;;;24.33;14.27;;;;;;;-143.21;91.47;72276.44;5090593;28;20216;-78
2023/05/21 04:03:36;;;;;;;28.27;13.73;;;;;;;-143.21;91.71;72306.19;5085371;28;20185;-79
2023/05/21 04:06:03;;;;;;;28.93;15.13;;;;;;;-143.21;94.36;72308.16;5096356;28;20205;-87
2023/05/21 04:08:30;;;;;;;26.03;14.93;;;;;;;-143.21;95.28;72292.31;5089791;28;20204;-84
2023/05/21 04:10:57;;;;;;;28.00;12.77;;;;;;;-143.21;95.01;72280.41;5081987;28;20644;-86
2023/05/21 04:13:24;;;;;;;21.03;12.13;;;;;;;-143.21;94.02;72274.47;5098811;28;20687;-85
2023/05/21 04:15:53;;;;;;;26.83;13.77;;;;;;;-143.21;93.98;72262.56;5087300;28;20220;-84
2023/05/21 04:18:22;;;;;;;29.57;14.03;;;;;;;-143.21;94.03;72256.59;5101882;28;20200;-84
2023/05/21 04:20:49;;;;;;;23.93;14.00;;;;;;;-143.21;94.26;72242.72;5099029;28;20271;-85
2023/05/21 04:23:16;;;;;;;32.53;16.67;;;;;;;-143.21;93.96;72230.81;5095816;28;20220;-77
2023/05/21 04:25:43;;;;;;;22.20;14.20;;;;;;;-143.21;93.81;72212.97;5088691;28;20583;-77
2023/05/21 04:28:10;;;;;;;20.93;13.27;;;;;;;-143.21;92.78;72209.00;5090002;28;20216;-77
2023/05/21 04:30:36;;;;;;;26.43;13.47;;;;;;;-143.21;92.47;72207.03;5082344;28;20214;-77
2023/05/21 04:33:04;;;;;;;23.33;13.77;;;;;;;-143.21;91.98;72201.09;5087455;28;20217;-85
2023/05/21 04:35:31;;;;;;;27.27;14.40;;;;;;;-143.21;92.24;72195.13;5090418;28;20203;-82
2023/05/21 04:37:59;;;;;;;26.30;15.17;;;;;;;-143.21;91.08;72197.13;5094547;28;20260;-83
2023/05/21 04:40:25;;;;;;;24.47;13.97;;;;;;;-143.21;91.04;72199.09;5101429;28;20200;-82
2023/05/21 04:42:52;;;;;;;22.13;14.40;;;;;;;-143.21;91.45;72191.16;5084461;28;20185;-82
2023/05/21 04:45:19;;;;;;;23.57;13.73;;;;;;;-143.21;91.44;72175.31;5080828;28;20208;-82
2023/05/21 04:47:46;;;;;;;21.70;14.40;;;;;;;-143.21;91.21;72173.31;5095123;28;20227;-82
2023/05/21 04:50:14;;;;;;;20.80;13.23;;;;;;;-143.21;90.76;72163.41;5080980;28;20208;-83
2023/05/21 04:52:44;;;;;;;20.93;13.77;;;;;;;-143.21;90.59;72149.53;5090898;28;20239;-79
2023/05/21 04:55:20;;;;;;;24.30;14.17;;;;;;;-143.21;90.89;72137.63;5093426;28;20207;-78
2023/05/21 04:57:47;;;;;;;24.70;14.23;;;;;;;-143.21;90.89;72121.75;5084903;28;20248;-78
2023/05/21 05:00:15;;;;;;;31.10;14.83;;;;;;;-143.21;90.76;72121.75;5091834;28;20288;-78
2023/05/21 05:02:42;;;;;;;24.43;16.67;;;;;;;-143.21;91.00;72105.91;5086317;28;20185;-77
2023/05/21 05:05:09;;;;;;;27.10;16.07;;;;;;;-143.21;91.16;72095.97;5089549;28;20209;-78
2023/05/21 05:07:37;;;;;;;23.63;15.30;;;;;;;-143.21;90.91;72092.00;5089840;28;20218;-78
2023/05/21 05:10:05;;;;;;;25.47;16.47;;;;;;;-143.21;90.66;72074.16;5084990;28;20242;-79
2023/05/21 05:12:32;;;;;;;28.73;16.07;;;;;;;-143.21;90.61;72082.09;5086635;28;20629;-77
2023/05/21 05:14:58;;;;;;;25.87;15.10;;;;;;;-143.21;90.70;72072.19;5081668;28;20630;-78
2023/05/21 05:17:25;;;;;;;29.93;14.77;;;;;;;-143.21;90.87;72062.25;5090041;28;20204;-79
2023/05/21 05:19:52;;;;;;;20.10;12.83;;;;;;;-143.21;90.24;72062.25;5096519;28;20193;-79
2023/05/21 05:22:19;;;;;;;25.90;12.47;;;;;;;-143.21;89.92;72054.34;5094397;28;20228;-79
2023/05/21 05:24:47;;;;;;;18.33;11.50;;;;;;;-143.21;89.03;72080.13;5085947;28;20555;-79
2023/05/21 05:27:14;;;;;;;17.37;11.50;;;;;;;-143.21;88.68;72103.91;5081924;28;20193;-79
2023/05/21 05:29:41;;;;;;;21.60;11.80;;;;;;;-143.21;91.19;72115.81;5083729;28;20676;-79
2023/05/21 05:32:08;;;;;;;18.87;11.40;;;;;;;-143.21;92.03;72105.91;5081884;28;20212;-78
2023/05/21 05:34:34;;;;;;;18.63;11.30;;;;;;;-143.21;92.18;72088.03;5086708;28;20213;-78
2023/05/21 05:37:03;;;;;;;20.67;11.80;;;;;;;-143.21;91.00;72068.22;5076849;28;20204;-78
2023/05/21 05:39:29;;;;;;;24.80;11.47;;;;;;;-143.21;90.97;72058.31;5079105;28;20581;-78
2023/05/21 05:41:58;;;;;;;16.43;10.87;;;;;;;-143.21;90.52;72040.44;5081438;28;20275;-84
2023/05/21 05:44:24;;;;;;;15.80;10.40;;;;;;;-143.21;88.84;72018.63;5097222;28;20210;-84
2023/05/21 05:46:51;;;;;;;19.03;10.97;;;;;;;-143.21;88.34;72002.78;5093215;28;20663;-86
2023/05/21 05:49:18;;;;;;;20.47;10.63;;;;;;;-143.21;87.65;71998.81;5090091;28;20203;-83
2023/05/21 05:51:45;;;;;;;16.80;10.60;;;;;;;-143.21;87.66;71996.81;5087054;28;20204;-87
2023/05/21 05:54:12;;;;;;;20.23;10.67;;;;;;;-143.21;87.69;71982.94;5094566;28;20698;-82
2023/05/21 05:56:38;;;;;;;16.70;10.73;;;;;;;-143.21;86.23;71969.06;5088144;28;20318;-87
2023/05/21 05:59:06;;;;;;;18.63;10.60;;;;;;;-143.21;86.56;71963.13;5089387;28;20726;-82
2023/05/21 06:01:33;;;;;;;22.00;11.80;;;;;;;-143.21;85.84;71957.16;5093577;28;20200;-77
2023/05/21 06:04:00;;;;;;;19.27;11.57;;;;;;;-143.21;86.03;71955.19;5082875;28;20282;-78
2023/05/21 06:06:27;;;;;;;19.03;11.40;;;;;;;-143.21;86.17;71945.28;5080441;28;20240;-79
2023/05/21 06:08:54;;;;;;;18.30;11.80;;;;;;;-143.21;85.17;71927.44;5086143;28;20189;-78
2023/05/21 06:11:21;;;;;;;17.90;11.03;;;;;;;-143.21;85.01;71913.53;5084673;28;20189;-78
2023/05/21 06:13:48;;;;;;;16.87;11.27;;;;;;;-143.21;84.70;71899.66;5084223;28;20213;-78
2023/05/21 06:16:16;;;;;;;16.23;11.13;;;;;;;-143.21;84.18;71887.78;5083263;28;20196;-78
2023/05/21 06:18:43;;;;;;;22.07;10.60;;;;;;;-143.21;82.36;71877.84;5083322;28;20682;-78
2023/05/21 06:21:10;;;;;;;21.03;11.23;;;;;;;-143.21;81.96;71871.91;5084562;28;20709;-78
2023/05/21 06:23:37;;;;;;;16.30;10.87;;;;;;;-143.21;80.39;71862.00;5080174;28;20205;-78
2023/05/21 06:26:04;;;;;;;14.57;9.60;;;;;;;-143.21;80.24;71856.03;5083878;28;20196;-78
2023/05/21 06:28:31;;;;;;;15.33;8.80;;;;;;;-143.21;78.25;71844.16;5090508;28;20196;-76
2023/05/21 06:30:58;;;;;;;15.87;8.80;;;;;;;-143.21;78.36;71844.16;5086992;28;20593;-76
2023/05/21 06:33:26;;;;;;;30.10;9.13;;;;;;;-143.21;78.19;71842.16;5092322;28;20642;-77
2023/05/21 06:35:53;;;;;;;14.63;7.83;;;;;;;-143.21;75.30;71836.22;5082569;28;20284;-77
2023/05/21 06:38:20;;;;;;;12.87;7.67;;;;;;;-143.21;74.92;71830.25;5086000;28;20201;-77
2023/05/21 06:40:48;;;;;;;12.10;7.37;;;;;;;-143.21;74.93;71832.25;5089609;28;20271;-77
2023/05/21 06:43:15;;;;;;;12.83;7.67;;;;;;;-143.21;74.49;71820.34;5087677;28;20188;-77
2023/05/21 06:45:41;;;;;;;16.03;7.60;;;;;;;-143.21;74.24;71814.41;5091330;28;20193;-79
2023/05/21 06:48:08;;;;;;;11.60;7.03;;;;;;;-143.21;73.53;71812.41;5085810;28;20208;-79
2023/05/21 06:50:36;;;;;;;11.17;6.87;;;;;;;-143.21;72.98;71798.53;5086814;28;20784;-79
2023/05/21 06:53:03;;;;;;;11.87;6.83;;;;;;;-143.21;72.24;71796.56;5083198;28;20293;-79
2023/05/21 06:55:30;;;;;;;14.30;6.70;;;;;;;-143.21;72.49;71792.59;5101222;28;20616;-79
2023/05/21 06:57:57;;;;;;;12.37;6.90;;;;;;;-143.21;72.44;71790.59;5081438;28;20597;-80
2023/05/21 07:00:24;;;;;;;13.67;7.23;;;;;;;-143.21;71.71;71780.69;5090416;28;20201;-78
2023/05/21 07:02:51;;;;;;;9.00;6.60;;;;;;;-143.21;71.13;71770.78;5093421;28;20270;-78
2023/05/21 07:05:19;;;;;;;11.00;6.97;;;;;;;-143.21;71.01;71764.81;5081044;28;20725;-78
2023/05/21 07:07:47;;;;;;;13.70;6.73;;;;;;;-143.21;70.23;71758.88;5080100;28;20197;-78
2023/05/21 07:10:14;;;;;;;13.83;7.13;;;;;;;-143.21;69.47;71750.94;5094113;28;20200;-78
2023/05/21 07:12:40;;;;;;;11.40;6.80;;;;;;;-143.21;69.03;71745.00;5085880;28;20205;-78
2023/05/21 07:15:08;;;;;;;13.17;6.57;;;;;;;-143.21;69.11;71733.09;5093396;28;20301;-78
2023/05/21 07:17:36;;;;;;;19.17;6.97;;;;;;;-143.21;69.19;71721.22;5089345;28;20223;-77
2023/05/21 07:20:04;;;;;;;12.20;6.57;;;;;;;-143.21;68.71;71707.31;5085743;28;20189;-77
2023/05/21 07:22:31;;;;;;;11.37;6.70;;;;;;;-143.21;68.15;71703.34;5087858;28;20201;-77
2023/05/21 07:25:00;;;;;;;12.20;6.93;;;;;;;-143.21;67.29;71689.47;5086424;28;20189;-76
2023/05/21 07:27:26;;;;;;;11.75;6.45;;;;;;;-143.21;67.63;71685.50;5087476;28;20198;-76
2023/05/21 07:29:53;;;;;;;11.37;6.47;;;;;;;-143.21;67.58;71675.59;5085645;28;20201;-76
2023/05/21 07:32:20;;;;;;;12.87;6.90;;;;;;;-143.21;66.60;71665.69;5086583;28;20642;-75
2023/05/21 07:34:47;;;;;;;13.52;7.10;;;;;;;-143.21;66.67;71657.75;5086827;28;20622;-75
2023/05/21 07:37:13;;;;;;;14.32;6.88;;;;;;;-143.21;66.95;71643.88;5089811;28;20208;-76
2023/05/21 07:39:40;;;;;;;11.10;6.85;;;;;;;-143.21;67.27;71637.94;5088397;28;20265;-75
2023/05/21 07:42:08;;;;;;;12.65;6.80;;;;;;;-143.21;66.19;71626.03;5087418;28;20212;-75
2023/05/21 07:44:35;;;;;;;9.65;6.28;;;;;;;-143.21;65.82;71610.16;5082637;28;20641;-75
2023/05/21 07:47:02;;;;;;;11.88;6.85;;;;;;;-143.21;65.73;71604.22;5087029;28;20664;-75
2023/05/21 07:49:29;;;;;;;11.98;6.47;;;;;;;-143.21;64.70;71594.31;5086117;28;20200;-75
2023/05/21 07:51:56;;;;;;;15.07;6.97;;;;;;;-143.21;64.12;71584.41;5084630;28;20262;-75
2023/05/21 07:54:22;;;;;;;14.75;6.07;;;;;;;-143.21;63.86;71578.44;5087870;28;20215;-76
2023/05/21 07:56:50;;;;;;;14.40;6.80;;;;;;;-143.21;64.33;71574.47;5087613;28;20227;-76
2023/05/21 07:59:18;;;;;;;14.82;7.22;;;;;;;-143.21;64.55;71566.56;5084070;28;20197;-76
2023/05/21 08:01:45;;;;;;;9.60;6.30;;;;;;;-143.21;63.68;71556.63;5084463;28;20195;-75
2023/05/21 08:04:12;;;;;;;12.77;7.03;;;;;;;-143.21;65.14;71550.69;5088026;28;20317;-75
2023/05/21 08:06:39;;;;;;;13.35;6.55;;;;;;;-143.21;64.82;71568.53;5084339;28;20888;-75
2023/05/21 08:09:06;;;;;;;10.70;7.07;;;;;;;-143.21;67.36;71606.22;5087674;28;20197;-75
2023/05/21 08:11:32;;;;;;;11.13;6.60;;;;;;;-143.21;67.75;71604.22;5086070;28;20570;-75
2023/05/21 08:13:59;;;;;;;8.98;6.28;;;;;;;-143.21;66.17;71578.44;5086852;28;20303;-75
2023/05/21 08:16:27;;;;;;;12.75;5.18;;;;;;;-143.21;58.85;71554.66;5086251;28;20196;-75
2023/05/21 08:18:54;;;;;;;11.20;5.10;;;;;;;-143.21;57.13;71522.94;5084952;28;20201;-75
2023/05/21 08:21:22;;;;;;;12.25;4.45;;;;;;;-143.21;56.14;71495.19;5086265;28;20201;-75
2023/05/21 08:23:49;;;;;;;6.53;4.45;;;;;;;-143.21;54.19;71473.38;5089007;28;20215;-75
2023/05/21 08:26:16;;;;;;;9.93;5.03;;;;;;;-143.21;54.15;71449.56;5080468;28;20213;-76
2023/05/21 08:28:43;;;;;;;11.70;5.07;;;;;;;-143.21;53.13;71425.78;5089482;28;20192;-76
2023/05/21 08:31:11;;;;;;;12.60;4.72;;;;;;;-143.21;51.87;71409.91;5084526;28;20211;-77
2023/05/21 08:33:39;;;;;;;9.60;4.65;;;;;;;-143.21;51.22;71400.00;5081580;28;20234;-74
2023/05/21 08:36:06;;;;;;;9.07;5.13;;;;;;;-143.21;51.46;71400.00;5085260;28;20211;-76
2023/05/21 08:38:35;;;;;;;10.48;5.10;;;;;;;-143.21;52.48;71382.16;5086167;28;20215;-78
2023/05/21 08:41:04;;;;;;;9.05;4.60;;;;;;;-143.21;51.57;71374.22;5085484;28;20193;-75
2023/05/21 08:43:31;;;;;;;8.07;4.45;;;;;;;-143.21;51.26;71380.19;5087183;28;20204;-76
2023/05/21 08:46:03;;;;;;;10.52;5.20;;;;;;;-143.21;52.07;71372.25;5091596;28;20288;-81
2023/05/21 08:48:31;;;;;;;18.83;4.88;;;;;;;-143.21;50.25;71360.34;5094936;28;20583;-81
2023/05/21 08:50:59;;;;;;;7.90;4.35;;;;;;;-143.21;50.32;71336.56;5085566;28;20205;-80
2023/05/21 08:53:27;;;;;;;9.30;4.70;;;;;;;-143.21;49.53;71330.63;5091149;28;20984;-81
2023/05/21 08:55:55;;;;;;;11.70;4.95;;;;;;;-143.21;48.99;71314.75;5083450;28;20247;-82
2023/05/21 08:58:23;;;;;;;16.60;4.72;;;;;;;-143.21;48.74;71285.03;5100208;28;20224;-81
2023/05/21 09:00:50;;;;;;;11.38;4.43;;;;;;;-143.21;48.76;71257.25;5092811;28;20207;-80
2023/05/21 09:03:17;;;;;;;8.02;4.40;;;;;;;-143.21;48.08;71245.38;5086442;28;20201;-80
2023/05/21 09:05:45;;;;;;;9.32;5.18;;;;;;;-143.21;48.30;71231.50;5078691;28;20597;-81
2023/05/21 09:08:18;;;;;;;12.77;5.35;;;;;;;-143.21;47.34;71213.66;5095491;28;20216;-79
2023/05/21 09:10:49;;;;;;;10.82;4.38;;;;;;;-143.21;45.83;71215.63;5086491;28;20194;-80
2023/05/21 09:13:17;;;;;;;13.80;5.00;;;;;;;-143.21;47.49;71221.56;5078577;28;20723;-80
2023/05/21 09:15:44;;;;;;;9.38;4.70;;;;;;;-143.21;49.67;71203.72;5086492;28;20223;-78
2023/05/21 09:18:11;;;;;;;10.65;4.75;;;;;;;-143.21;47.55;71193.81;5082667;28;20209;-77
2023/05/21 09:20:38;;;;;;;7.40;4.70;;;;;;;-143.21;49.29;71179.94;5089135;28;20299;-77
2023/05/21 09:23:11;;;;;;;7.00;4.72;;;;;;;-143.21;49.73;71179.94;5089738;28;20204;-77
2023/05/21 09:25:40;;;;;;;6.10;4.45;;;;;;;-143.21;50.54;71164.09;5082918;28;20193;-77
2023/05/21 09:28:16;;;;;;;10.82;4.93;;;;;;;-143.21;48.94;71168.06;5080295;28;20315;-77
2023/05/21 09:30:46;;;;;;;11.40;4.88;;;;;;;-143.21;50.36;71164.09;5081576;28;20189;-79
2023/05/21 09:33:24;;;;;;;9.98;4.93;;;;;;;-143.21;49.91;71211.66;5087004;28;20204;-78
2023/05/21 09:35:51;;;;;;;8.60;4.82;;;;;;;-143.21;51.46;71235.44;5079668;28;20212;-78
2023/05/21 09:38:18;;;;;;;9.38;4.68;;;;;;;-143.21;52.57;71201.75;5082954;28;20273;-78
2023/05/21 09:40:46;;;;;;;8.10;4.05;;;;;;;-143.21;53.72;71166.06;5076673;28;20220;-78
2023/05/21 09:43:17;;;;;;;7.30;4.05;;;;;;;-143.21;47.32;71148.22;5088123;28;20200;-78
2023/05/21 09:45:54;;;;;;;10.15;4.70;;;;;;;-143.21;47.74;71130.38;5081670;28;20201;-79
2023/05/21 09:48:35;;;;;;;8.35;4.35;;;;;;;-143.21;46.26;71112.53;5081268;28;20193;-78
2023/05/21 09:51:12;;;;;;;11.00;4.13;;;;;;;-143.21;45.65;71110.56;5081694;28;20209;-78
2023/05/21 09:53:50;;;;;;;12.73;4.53;;;;;;;-143.21;49.14;71082.81;5074093;28;20208;-78
2023/05/21 09:56:23;;;;;;;8.45;4.55;;;;;;;-143.21;44.98;71080.81;5084676;28;20236;-78
2023/05/21 09:58:53;;;;;;;7.85;4.45;;;;;;;-143.21;47.33;71055.06;5077385;28;20189;-78
2023/05/21 10:01:21;;;;;;;7.78;4.78;;;;;;;-143.21;46.21;71035.22;5079316;28;20192;-78
2023/05/21 10:03:54;;;;;;;8.35;4.55;;;;;;;-143.21;44.88;71019.38;5090512;28;20250;-79
2023/05/21 10:06:24;;;;;;;8.90;3.97;;;;;;;-143.21;43.75;70995.56;5099048;28;20287;-78
2023/05/21 10:08:53;;;;;;;10.40;4.57;;;;;;;-143.21;43.54;70967.81;5087352;28;20200;-79
2023/05/21 10:11:23;;;;;;;7.50;4.07;;;;;;;-143.21;39.84;70967.81;5085750;28;20204;-79
2023/05/21 10:14:04;;;;;;;10.90;4.22;;;;;;;-143.21;40.40;70991.63;5086122;28;20311;-78
2023/05/21 10:16:33;;;;;;;9.35;4.50;;;;;;;-143.21;39.47;71025.31;5087820;28;20267;-78
2023/05/21 10:19:00;;;;;;;11.60;4.72;;;;;;;-143.21;39.83;71043.16;5088485;28;20255;-78
2023/05/21 10:21:27;;;;;;;6.95;4.20;;;;;;;-143.21;40.54;71066.94;5090733;28;20572;-77
2023/05/21 10:23:57;;;;;;;7.45;4.28;;;;;;;-143.21;43.48;71074.88;5081726;28;20604;-78
2023/05/21 10:26:26;;;;;;;11.50;4.82;;;;;;;-143.21;43.04;71128.41;5092985;28;20199;-78
2023/05/21 10:28:56;;;;;;;6.95;4.60;;;;;;;-143.21;43.30;71166.06;5084365;28;20201;-78
2023/05/21 10:31:23;;;;;;;11.93;4.35;;;;;;;-143.21;43.22;71150.22;5090911;28;20646;-78
2023/05/21 10:33:51;;;;;;;7.45;4.43;;;;;;;-143.21;42.57;71134.34;5084133;28;20193;-78
2023/05/21 10:36:18;;;;;;;8.75;4.40;;;;;;;-143.21;42.77;71112.53;5083467;28;20221;-76
2023/05/21 10:38:45;;;;;;;9.77;4.88;;;;;;;-143.21;42.28;71092.72;5091826;28;20197;-76
2023/05/21 10:41:16;;;;;;;10.32;4.90;;;;;;;-143.21;42.25;71072.88;5095292;28;20201;-78
2023/05/21 10:43:59;;;;;;;12.57;4.68;;;;;;;-143.21;41.76;71047.13;5081511;28;20270;-80
2023/05/21 10:47:00;;;;;;;10.52;4.80;;;;;;;-143.21;41.41;71023.34;5094089;28;20289;-78
2023/05/21 10:49:53;;;;;;;9.63;4.93;;;;;;;-143.21;41.05;71023.34;5103900;28;20207;-78
2023/05/21 10:52:35;;;;;;;8.27;4.72;;;;;;;-143.21;42.03;71021.34;5086322;28;20559;-80
2023/05/21 10:55:11;;;;;;;11.75;4.95;;;;;;;-143.21;41.93;71029.28;5079513;28;20903;-78
2023/05/21 10:57:57;;;;;;;6.70;4.53;;;;;;;-143.21;41.78;71025.31;5090101;28;20236;-78
2023/05/21 11:00:27;;;;;;;7.90;4.85;;;;;;;-143.21;42.04;71033.25;5094599;28;20561;-80
2023/05/21 11:02:54;;;;;;;8.55;4.40;;;;;;;-143.21;42.01;71047.13;5092895;28;20208;-79
2023/05/21 11:05:39;;;;;;;13.73;5.05;;;;;;;-143.21;42.29;71047.13;5086889;28;20284;-79
2023/05/21 11:08:21;;;;;;;10.75;4.70;;;;;;;-143.21;42.68;71051.09;5083817;28;20228;-80
2023/05/21 11:10:52;;;;;;;10.85;5.10;;;;;;;-143.21;42.88;71066.94;5087553;28;20280;-81
2023/05/21 11:13:20;;;;;;;7.97;4.68;;;;;;;-143.21;43.28;71090.72;5078424;28;20201;-80